sensor_id;sensor_type;location;lat;lon;timestamp;P1;durP1;ratioP1;P2;durP2;ratioP2
71176;SDS011;58877;51.992;4.504;2024-02-21T00:01:39;8.39;;;5.45;;
71176;SDS011;58877;51.992;4.504;2024-02-21T00:04:08;7.43;;;4.85;;
71176;SDS011;58877;51.992;4.504;2024-02-21T00:06:53;7.80;;;5.21;;
71176;SDS011;58877;51.992;4.504;2024-02-21T00:09:22;6.87;;;4.62;;
71176;SDS011;58877;51.992;4.504;2024-02-21T00:11:48;6.28;;;4.25;;
71176;SDS011;58877;51.992;4.504;2024-02-21T00:14:14;5.84;;;4.08;;
71176;SDS011;58877;51.992;4.504;2024-02-21T00:16:40;6.42;;;4.55;;
71176;SDS011;58877;51.992;4.504;2024-02-21T00:19:06;6.21;;;4.36;;
71176;SDS011;58877;51.992;4.504;2024-02-21T00:21:31;6.66;;;4.63;;
71176;SDS011;58877;51.992;4.504;2024-02-21T00:23:57;7.30;;;4.93;;
71176;SDS011;58877;51.992;4.504;2024-02-21T00:26:25;7.24;;;4.80;;
71176;SDS011;58877;51.992;4.504;2024-02-21T00:28:51;8.67;;;5.66;;
71176;SDS011;58877;51.992;4.504;2024-02-21T00:31:18;8.57;;;5.52;;
71176;SDS011;58877;51.992;4.504;2024-02-21T00:33:44;8.89;;;5.72;;
71176;SDS011;58877;51.992;4.504;2024-02-21T00:36:10;8.89;;;5.89;;
71176;SDS011;58877;51.992;4.504;2024-02-21T00:38:36;8.71;;;6.00;;
71176;SDS011;58877;51.992;4.504;2024-02-21T00:41:02;7.95;;;5.61;;
71176;SDS011;58877;51.992;4.504;2024-02-21T00:43:28;6.82;;;5.06;;
71176;SDS011;58877;51.992;4.504;2024-02-21T00:45:54;7.00;;;5.12;;
71176;SDS011;58877;51.992;4.504;2024-02-21T00:48:26;7.11;;;5.22;;
71176;SDS011;58877;51.992;4.504;2024-02-21T00:50:52;5.97;;;4.42;;
71176;SDS011;58877;51.992;4.504;2024-02-21T00:53:29;6.20;;;4.58;;
71176;SDS011;58877;51.992;4.504;2024-02-21T00:55:54;6.55;;;4.77;;
71176;SDS011;58877;51.992;4.504;2024-02-21T00:58:26;7.44;;;5.36;;
71176;SDS011;58877;51.992;4.504;2024-02-21T01:00:52;6.97;;;5.08;;
71176;SDS011;58877;51.992;4.504;2024-02-21T01:03:21;5.77;;;4.27;;
71176;SDS011;58877;51.992;4.504;2024-02-21T01:05:47;5.78;;;4.22;;
71176;SDS011;58877;51.992;4.504;2024-02-21T01:08:13;5.95;;;4.29;;
71176;SDS011;58877;51.992;4.504;2024-02-21T01:10:40;5.89;;;4.21;;
71176;SDS011;58877;51.992;4.504;2024-02-21T01:13:06;6.33;;;4.41;;
71176;SDS011;58877;51.992;4.504;2024-02-21T01:15:35;6.01;;;4.22;;
71176;SDS011;58877;51.992;4.504;2024-02-21T01:18:02;6.44;;;4.46;;
71176;SDS011;58877;51.992;4.504;2024-02-21T01:20:28;6.79;;;4.73;;
71176;SDS011;58877;51.992;4.504;2024-02-21T01:23:00;6.05;;;4.26;;
71176;SDS011;58877;51.992;4.504;2024-02-21T01:25:29;6.64;;;4.70;;
71176;SDS011;58877;51.992;4.504;2024-02-21T01:27:55;7.51;;;5.12;;
71176;SDS011;58877;51.992;4.504;2024-02-21T01:30:21;6.61;;;4.47;;
71176;SDS011;58877;51.992;4.504;2024-02-21T01:32:47;6.34;;;4.36;;
71176;SDS011;58877;51.992;4.504;2024-02-21T01:35:14;5.63;;;3.87;;
71176;SDS011;58877;51.992;4.504;2024-02-21T01:37:39;5.93;;;4.03;;
71176;SDS011;58877;51.992;4.504;2024-02-21T01:40:05;7.11;;;4.85;;
71176;SDS011;58877;51.992;4.504;2024-02-21T01:42:31;6.90;;;4.61;;
71176;SDS011;58877;51.992;4.504;2024-02-21T01:44:57;7.01;;;4.70;;
71176;SDS011;58877;51.992;4.504;2024-02-21T01:47:26;7.15;;;4.85;;
71176;SDS011;58877;51.992;4.504;2024-02-21T01:49:52;7.35;;;4.97;;
71176;SDS011;58877;51.992;4.504;2024-02-21T01:52:18;7.21;;;4.97;;
71176;SDS011;58877;51.992;4.504;2024-02-21T01:54:46;7.13;;;4.92;;
71176;SDS011;58877;51.992;4.504;2024-02-21T01:57:13;6.90;;;4.89;;
71176;SDS011;58877;51.992;4.504;2024-02-21T01:59:42;5.74;;;4.17;;
71176;SDS011;58877;51.992;4.504;2024-02-21T02:02:08;5.55;;;4.11;;
71176;SDS011;58877;51.992;4.504;2024-02-21T02:04:34;5.81;;;4.23;;
71176;SDS011;58877;51.992;4.504;2024-02-21T02:07:03;7.72;;;5.38;;
71176;SDS011;58877;51.992;4.504;2024-02-21T02:09:32;7.23;;;5.10;;
71176;SDS011;58877;51.992;4.504;2024-02-21T02:11:59;6.14;;;4.48;;
71176;SDS011;58877;51.992;4.504;2024-02-21T02:14:26;5.80;;;4.31;;
71176;SDS011;58877;51.992;4.504;2024-02-21T02:16:51;5.10;;;3.83;;
71176;SDS011;58877;51.992;4.504;2024-02-21T02:19:17;5.14;;;3.90;;
71176;SDS011;58877;51.992;4.504;2024-02-21T02:21:48;5.28;;;3.98;;
71176;SDS011;58877;51.992;4.504;2024-02-21T02:24:23;5.58;;;4.25;;
71176;SDS011;58877;51.992;4.504;2024-02-21T02:26:53;5.45;;;4.17;;
71176;SDS011;58877;51.992;4.504;2024-02-21T02:29:19;4.85;;;3.79;;
71176;SDS011;58877;51.992;4.504;2024-02-21T02:31:45;5.04;;;3.84;;
71176;SDS011;58877;51.992;4.504;2024-02-21T02:34:13;6.04;;;4.49;;
71176;SDS011;58877;51.992;4.504;2024-02-21T02:36:39;4.94;;;3.70;;
71176;SDS011;58877;51.992;4.504;2024-02-21T02:39:05;5.26;;;4.04;;
71176;SDS011;58877;51.992;4.504;2024-02-21T02:41:35;4.70;;;3.65;;
71176;SDS011;58877;51.992;4.504;2024-02-21T02:44:02;4.70;;;3.76;;
71176;SDS011;58877;51.992;4.504;2024-02-21T02:46:28;5.06;;;4.05;;
71176;SDS011;58877;51.992;4.504;2024-02-21T02:48:54;5.19;;;4.03;;
71176;SDS011;58877;51.992;4.504;2024-02-21T02:51:20;4.44;;;3.57;;
71176;SDS011;58877;51.992;4.504;2024-02-21T02:53:46;4.20;;;3.56;;
71176;SDS011;58877;51.992;4.504;2024-02-21T02:56:16;4.96;;;4.14;;
71176;SDS011;58877;51.992;4.504;2024-02-21T02:58:44;4.17;;;3.54;;
71176;SDS011;58877;51.992;4.504;2024-02-21T03:01:14;4.67;;;3.98;;
71176;SDS011;58877;51.992;4.504;2024-02-21T03:03:40;4.94;;;4.14;;
71176;SDS011;58877;51.992;4.504;2024-02-21T03:06:06;5.19;;;4.36;;
71176;SDS011;58877;51.992;4.504;2024-02-21T03:08:32;5.04;;;4.16;;
71176;SDS011;58877;51.992;4.504;2024-02-21T03:10:59;4.96;;;4.26;;
71176;SDS011;58877;51.992;4.504;2024-02-21T03:13:28;5.15;;;4.40;;
71176;SDS011;58877;51.992;4.504;2024-02-21T03:15:54;4.77;;;4.01;;
71176;SDS011;58877;51.992;4.504;2024-02-21T03:18:20;4.79;;;4.02;;
71176;SDS011;58877;51.992;4.504;2024-02-21T03:20:48;4.65;;;4.05;;
71176;SDS011;58877;51.992;4.504;2024-02-21T03:23:14;5.30;;;4.57;;
71176;SDS011;58877;51.992;4.504;2024-02-21T03:25:40;4.61;;;4.15;;
71176;SDS011;58877;51.992;4.504;2024-02-21T03:28:07;4.80;;;4.27;;
71176;SDS011;58877;51.992;4.504;2024-02-21T03:30:42;4.74;;;4.18;;
71176;SDS011;58877;51.992;4.504;2024-02-21T03:33:08;4.68;;;4.07;;
71176;SDS011;58877;51.992;4.504;2024-02-21T03:35:34;5.21;;;4.45;;
71176;SDS011;58877;51.992;4.504;2024-02-21T03:38:02;4.93;;;4.30;;
71176;SDS011;58877;51.992;4.504;2024-02-21T03:40:28;5.22;;;4.73;;
71176;SDS011;58877;51.992;4.504;2024-02-21T03:42:54;4.40;;;4.16;;
71176;SDS011;58877;51.992;4.504;2024-02-21T03:45:20;4.21;;;4.07;;
71176;SDS011;58877;51.992;4.504;2024-02-21T03:47:46;4.30;;;4.19;;
71176;SDS011;58877;51.992;4.504;2024-02-21T03:50:12;4.46;;;4.32;;
71176;SDS011;58877;51.992;4.504;2024-02-21T03:52:38;4.35;;;4.22;;
71176;SDS011;58877;51.992;4.504;2024-02-21T03:55:04;4.47;;;4.31;;
71176;SDS011;58877;51.992;4.504;2024-02-21T03:57:32;4.63;;;4.54;;
71176;SDS011;58877;51.992;4.504;2024-02-21T03:59:58;4.81;;;4.62;;
71176;SDS011;58877;51.992;4.504;2024-02-21T04:02:24;4.74;;;4.62;;
71176;SDS011;58877;51.992;4.504;2024-02-21T04:04:50;4.99;;;4.91;;
71176;SDS011;58877;51.992;4.504;2024-02-21T04:07:15;4.80;;;4.72;;
71176;SDS011;58877;51.992;4.504;2024-02-21T04:09:42;4.55;;;4.43;;
71176;SDS011;58877;51.992;4.504;2024-02-21T04:12:11;5.17;;;4.98;;
71176;SDS011;58877;51.992;4.504;2024-02-21T04:14:39;5.12;;;4.98;;
71176;SDS011;58877;51.992;4.504;2024-02-21T04:17:05;5.14;;;5.06;;
71176;SDS011;58877;51.992;4.504;2024-02-21T04:19:30;5.95;;;5.93;;
71176;SDS011;58877;51.992;4.504;2024-02-21T04:21:59;5.75;;;5.71;;
71176;SDS011;58877;51.992;4.504;2024-02-21T04:24:30;5.48;;;5.47;;
71176;SDS011;58877;51.992;4.504;2024-02-21T04:26:59;5.46;;;5.46;;
71176;SDS011;58877;51.992;4.504;2024-02-21T04:29:28;5.98;;;5.96;;
71176;SDS011;58877;51.992;4.504;2024-02-21T04:31:56;6.01;;;6.01;;
71176;SDS011;58877;51.992;4.504;2024-02-21T04:34:22;5.93;;;5.92;;
71176;SDS011;58877;51.992;4.504;2024-02-21T04:36:47;5.99;;;5.98;;
71176;SDS011;58877;51.992;4.504;2024-02-21T04:39:21;5.92;;;5.92;;
71176;SDS011;58877;51.992;4.504;2024-02-21T04:41:47;5.53;;;5.53;;
71176;SDS011;58877;51.992;4.504;2024-02-21T04:44:13;5.89;;;5.85;;
71176;SDS011;58877;51.992;4.504;2024-02-21T04:46:42;6.26;;;6.23;;
71176;SDS011;58877;51.992;4.504;2024-02-21T04:49:14;6.30;;;6.29;;
71176;SDS011;58877;51.992;4.504;2024-02-21T04:51:40;5.81;;;5.79;;
71176;SDS011;58877;51.992;4.504;2024-02-21T04:54:07;5.98;;;5.98;;
71176;SDS011;58877;51.992;4.504;2024-02-21T04:56:33;5.82;;;5.82;;
71176;SDS011;58877;51.992;4.504;2024-02-21T04:59:03;5.98;;;5.98;;
71176;SDS011;58877;51.992;4.504;2024-02-21T05:01:37;6.38;;;6.38;;
71176;SDS011;58877;51.992;4.504;2024-02-21T05:04:03;6.57;;;6.57;;
71176;SDS011;58877;51.992;4.504;2024-02-21T05:06:36;6.18;;;6.18;;
71176;SDS011;58877;51.992;4.504;2024-02-21T05:09:03;5.94;;;5.94;;
71176;SDS011;58877;51.992;4.504;2024-02-21T05:11:30;6.20;;;6.20;;
71176;SDS011;58877;51.992;4.504;2024-02-21T05:13:56;6.02;;;6.02;;
71176;SDS011;58877;51.992;4.504;2024-02-21T05:16:23;6.16;;;6.15;;
71176;SDS011;58877;51.992;4.504;2024-02-21T05:18:52;6.22;;;6.22;;
71176;SDS011;58877;51.992;4.504;2024-02-21T05:21:18;5.67;;;5.65;;
71176;SDS011;58877;51.992;4.504;2024-02-21T05:23:47;6.15;;;6.12;;
71176;SDS011;58877;51.992;4.504;2024-02-21T05:26:22;5.82;;;5.82;;
71176;SDS011;58877;51.992;4.504;2024-02-21T05:28:49;6.14;;;6.14;;
71176;SDS011;58877;51.992;4.504;2024-02-21T05:31:18;5.99;;;5.99;;
71176;SDS011;58877;51.992;4.504;2024-02-21T05:33:45;6.11;;;6.09;;
71176;SDS011;58877;51.992;4.504;2024-02-21T05:36:11;6.91;;;6.87;;
71176;SDS011;58877;51.992;4.504;2024-02-21T05:38:37;6.62;;;6.58;;
71176;SDS011;58877;51.992;4.504;2024-02-21T05:41:03;6.58;;;6.58;;
71176;SDS011;58877;51.992;4.504;2024-02-21T05:43:29;6.77;;;6.77;;
71176;SDS011;58877;51.992;4.504;2024-02-21T05:45:59;6.31;;;6.31;;
71176;SDS011;58877;51.992;4.504;2024-02-21T05:48:28;6.30;;;6.30;;
71176;SDS011;58877;51.992;4.504;2024-02-21T05:50:54;6.90;;;6.90;;
71176;SDS011;58877;51.992;4.504;2024-02-21T05:53:20;6.87;;;6.86;;
71176;SDS011;58877;51.992;4.504;2024-02-21T05:55:47;7.48;;;7.47;;
71176;SDS011;58877;51.992;4.504;2024-02-21T05:58:13;7.47;;;7.47;;
71176;SDS011;58877;51.992;4.504;2024-02-21T06:00:41;8.07;;;8.07;;
71176;SDS011;58877;51.992;4.504;2024-02-21T06:03:07;7.39;;;7.39;;
71176;SDS011;58877;51.992;4.504;2024-02-21T06:05:37;6.88;;;6.87;;
71176;SDS011;58877;51.992;4.504;2024-02-21T06:08:03;6.94;;;6.94;;
71176;SDS011;58877;51.992;4.504;2024-02-21T06:10:30;7.32;;;7.31;;
71176;SDS011;58877;51.992;4.504;2024-02-21T06:12:55;7.22;;;7.19;;
71176;SDS011;58877;51.992;4.504;2024-02-21T06:15:21;7.45;;;7.45;;
71176;SDS011;58877;51.992;4.504;2024-02-21T06:17:48;7.75;;;7.73;;
71176;SDS011;58877;51.992;4.504;2024-02-21T06:20:15;8.08;;;8.08;;
71176;SDS011;58877;51.992;4.504;2024-02-21T06:22:41;8.16;;;8.16;;
71176;SDS011;58877;51.992;4.504;2024-02-21T06:25:07;7.53;;;7.53;;
71176;SDS011;58877;51.992;4.504;2024-02-21T06:27:33;8.35;;;8.35;;
71176;SDS011;58877;51.992;4.504;2024-02-21T06:29:59;8.45;;;8.44;;
71176;SDS011;58877;51.992;4.504;2024-02-21T06:32:25;8.35;;;8.35;;
71176;SDS011;58877;51.992;4.504;2024-02-21T06:34:50;7.74;;;7.74;;
71176;SDS011;58877;51.992;4.504;2024-02-21T06:37:16;8.35;;;8.34;;
71176;SDS011;58877;51.992;4.504;2024-02-21T06:39:42;7.41;;;7.41;;
71176;SDS011;58877;51.992;4.504;2024-02-21T06:42:09;7.59;;;7.58;;
71176;SDS011;58877;51.992;4.504;2024-02-21T06:44:37;7.64;;;7.64;;
71176;SDS011;58877;51.992;4.504;2024-02-21T06:47:05;7.20;;;7.17;;
71176;SDS011;58877;51.992;4.504;2024-02-21T06:49:32;7.69;;;7.66;;
71176;SDS011;58877;51.992;4.504;2024-02-21T06:51:58;7.19;;;7.15;;
71176;SDS011;58877;51.992;4.504;2024-02-21T06:54:27;7.27;;;7.26;;
71176;SDS011;58877;51.992;4.504;2024-02-21T06:56:54;7.63;;;7.62;;
71176;SDS011;58877;51.992;4.504;2024-02-21T06:59:19;8.21;;;8.18;;
71176;SDS011;58877;51.992;4.504;2024-02-21T07:01:48;7.81;;;7.79;;
71176;SDS011;58877;51.992;4.504;2024-02-21T07:04:15;8.12;;;8.11;;
71176;SDS011;58877;51.992;4.504;2024-02-21T07:06:41;7.85;;;7.82;;
71176;SDS011;58877;51.992;4.504;2024-02-21T07:09:06;8.08;;;8.00;;
71176;SDS011;58877;51.992;4.504;2024-02-21T07:11:32;7.40;;;7.30;;
71176;SDS011;58877;51.992;4.504;2024-02-21T07:13:58;7.78;;;7.75;;
71176;SDS011;58877;51.992;4.504;2024-02-21T07:16:23;7.41;;;7.40;;
71176;SDS011;58877;51.992;4.504;2024-02-21T07:18:49;8.02;;;8.01;;
71176;SDS011;58877;51.992;4.504;2024-02-21T07:21:15;8.26;;;8.24;;
71176;SDS011;58877;51.992;4.504;2024-02-21T07:23:41;8.24;;;8.22;;
71176;SDS011;58877;51.992;4.504;2024-02-21T07:26:07;8.18;;;8.15;;
71176;SDS011;58877;51.992;4.504;2024-02-21T07:28:36;8.74;;;8.67;;
71176;SDS011;58877;51.992;4.504;2024-02-21T07:31:02;8.84;;;8.79;;
71176;SDS011;58877;51.992;4.504;2024-02-21T07:33:28;8.47;;;8.41;;
71176;SDS011;58877;51.992;4.504;2024-02-21T07:35:56;8.97;;;8.87;;
71176;SDS011;58877;51.992;4.504;2024-02-21T07:38:21;9.70;;;9.58;;
71176;SDS011;58877;51.992;4.504;2024-02-21T07:40:47;9.25;;;9.16;;
71176;SDS011;58877;51.992;4.504;2024-02-21T07:43:14;9.35;;;9.28;;
71176;SDS011;58877;51.992;4.504;2024-02-21T07:45:40;8.90;;;8.86;;
71176;SDS011;58877;51.992;4.504;2024-02-21T07:48:06;10.61;;;10.52;;
71176;SDS011;58877;51.992;4.504;2024-02-21T07:50:36;10.43;;;10.37;;
71176;SDS011;58877;51.992;4.504;2024-02-21T07:53:02;10.06;;;10.03;;
71176;SDS011;58877;51.992;4.504;2024-02-21T07:55:28;9.92;;;9.88;;
71176;SDS011;58877;51.992;4.504;2024-02-21T07:57:54;10.15;;;10.14;;
71176;SDS011;58877;51.992;4.504;2024-02-21T08:00:20;9.84;;;9.83;;
71176;SDS011;58877;51.992;4.504;2024-02-21T08:06:54;9.44;;;9.40;;
71176;SDS011;58877;51.992;4.504;2024-02-21T08:09:53;10.57;;;10.45;;
71176;SDS011;58877;51.992;4.504;2024-02-21T08:12:21;10.12;;;9.99;;
71176;SDS011;58877;51.992;4.504;2024-02-21T08:14:47;9.75;;;9.71;;
71176;SDS011;58877;51.992;4.504;2024-02-21T08:17:19;10.12;;;10.12;;
71176;SDS011;58877;51.992;4.504;2024-02-21T08:19:49;9.73;;;9.73;;
71176;SDS011;58877;51.992;4.504;2024-02-21T08:22:15;9.64;;;9.63;;
71176;SDS011;58877;51.992;4.504;2024-02-21T08:24:44;9.93;;;9.87;;
71176;SDS011;58877;51.992;4.504;2024-02-21T08:27:14;9.43;;;9.40;;
71176;SDS011;58877;51.992;4.504;2024-02-21T08:29:40;9.59;;;9.57;;
71176;SDS011;58877;51.992;4.504;2024-02-21T08:32:07;9.34;;;9.33;;
71176;SDS011;58877;51.992;4.504;2024-02-21T08:34:33;9.58;;;9.54;;
71176;SDS011;58877;51.992;4.504;2024-02-21T08:37:02;9.78;;;9.70;;
71176;SDS011;58877;51.992;4.504;2024-02-21T08:39:36;10.48;;;10.43;;
71176;SDS011;58877;51.992;4.504;2024-02-21T08:42:03;10.63;;;10.62;;
71176;SDS011;58877;51.992;4.504;2024-02-21T08:44:29;11.00;;;11.00;;
71176;SDS011;58877;51.992;4.504;2024-02-21T08:47:01;11.27;;;11.27;;
71176;SDS011;58877;51.992;4.504;2024-02-21T08:49:32;12.41;;;12.38;;
71176;SDS011;58877;51.992;4.504;2024-02-21T08:52:02;12.18;;;12.14;;
71176;SDS011;58877;51.992;4.504;2024-02-21T08:54:30;11.76;;;11.74;;
71176;SDS011;58877;51.992;4.504;2024-02-21T08:56:56;11.57;;;11.54;;
71176;SDS011;58877;51.992;4.504;2024-02-21T08:59:23;11.60;;;11.60;;
71176;SDS011;58877;51.992;4.504;2024-02-21T09:01:52;11.24;;;11.24;;
71176;SDS011;58877;51.992;4.504;2024-02-21T09:04:20;11.78;;;11.78;;
71176;SDS011;58877;51.992;4.504;2024-02-21T09:06:59;12.52;;;12.51;;
71176;SDS011;58877;51.992;4.504;2024-02-21T09:12:38;10.64;;;10.60;;
71176;SDS011;58877;51.992;4.504;2024-02-21T09:15:06;10.28;;;10.18;;
71176;SDS011;58877;51.992;4.504;2024-02-21T09:17:33;10.23;;;10.16;;
71176;SDS011;58877;51.992;4.504;2024-02-21T09:20:03;9.44;;;9.43;;
71176;SDS011;58877;51.992;4.504;2024-02-21T09:22:33;9.39;;;9.39;;
71176;SDS011;58877;51.992;4.504;2024-02-21T09:25:01;9.46;;;9.45;;
71176;SDS011;58877;51.992;4.504;2024-02-21T09:27:32;9.22;;;9.21;;
71176;SDS011;58877;51.992;4.504;2024-02-21T09:29:58;9.29;;;9.26;;
71176;SDS011;58877;51.992;4.504;2024-02-21T09:32:27;9.48;;;9.45;;
71176;SDS011;58877;51.992;4.504;2024-02-21T09:34:55;8.88;;;8.87;;
71176;SDS011;58877;51.992;4.504;2024-02-21T09:37:22;8.89;;;8.89;;
71176;SDS011;58877;51.992;4.504;2024-02-21T09:39:51;8.14;;;8.14;;
71176;SDS011;58877;51.992;4.504;2024-02-21T09:42:40;8.01;;;8.00;;
71176;SDS011;58877;51.992;4.504;2024-02-21T09:45:19;7.91;;;7.91;;
71176;SDS011;58877;51.992;4.504;2024-02-21T09:50:55;8.04;;;8.03;;
71176;SDS011;58877;51.992;4.504;2024-02-21T09:53:27;7.54;;;7.54;;
71176;SDS011;58877;51.992;4.504;2024-02-21T09:55:56;8.25;;;8.24;;
71176;SDS011;58877;51.992;4.504;2024-02-21T09:58:23;7.70;;;7.69;;
71176;SDS011;58877;51.992;4.504;2024-02-21T10:00:57;7.62;;;7.61;;
71176;SDS011;58877;51.992;4.504;2024-02-21T10:03:34;7.74;;;7.71;;
71176;SDS011;58877;51.992;4.504;2024-02-21T10:06:00;7.78;;;7.76;;
71176;SDS011;58877;51.992;4.504;2024-02-21T10:08:31;7.74;;;7.73;;
71176;SDS011;58877;51.992;4.504;2024-02-21T10:11:00;7.07;;;7.07;;
71176;SDS011;58877;51.992;4.504;2024-02-21T10:13:34;7.14;;;7.14;;
71176;SDS011;58877;51.992;4.504;2024-02-21T10:16:05;7.09;;;7.09;;
71176;SDS011;58877;51.992;4.504;2024-02-21T10:18:36;6.69;;;6.69;;
71176;SDS011;58877;51.992;4.504;2024-02-21T10:21:07;7.29;;;7.29;;
71176;SDS011;58877;51.992;4.504;2024-02-21T10:23:42;6.59;;;6.59;;
71176;SDS011;58877;51.992;4.504;2024-02-21T10:26:16;6.63;;;6.61;;
71176;SDS011;58877;51.992;4.504;2024-02-21T10:28:48;6.24;;;6.24;;
71176;SDS011;58877;51.992;4.504;2024-02-21T10:31:27;6.00;;;5.97;;
71176;SDS011;58877;51.992;4.504;2024-02-21T10:33:59;6.44;;;6.44;;
71176;SDS011;58877;51.992;4.504;2024-02-21T10:36:30;6.35;;;6.35;;
71176;SDS011;58877;51.992;4.504;2024-02-21T10:38:56;6.46;;;6.46;;
71176;SDS011;58877;51.992;4.504;2024-02-21T10:41:23;6.20;;;6.20;;
71176;SDS011;58877;51.992;4.504;2024-02-21T10:43:50;6.57;;;6.57;;
71176;SDS011;58877;51.992;4.504;2024-02-21T10:46:19;6.03;;;6.03;;
71176;SDS011;58877;51.992;4.504;2024-02-21T10:48:47;6.40;;;6.39;;
71176;SDS011;58877;51.992;4.504;2024-02-21T10:51:17;6.91;;;6.89;;
71176;SDS011;58877;51.992;4.504;2024-02-21T10:56:40;6.82;;;6.82;;
71176;SDS011;58877;51.992;4.504;2024-02-21T10:59:07;6.50;;;6.50;;
71176;SDS011;58877;51.992;4.504;2024-02-21T11:01:37;7.07;;;7.07;;
71176;SDS011;58877;51.992;4.504;2024-02-21T11:04:14;7.87;;;7.84;;
71176;SDS011;58877;51.992;4.504;2024-02-21T11:06:55;6.89;;;6.87;;
71176;SDS011;58877;51.992;4.504;2024-02-21T11:09:34;7.41;;;7.41;;
71176;SDS011;58877;51.992;4.504;2024-02-21T11:12:03;7.42;;;7.42;;
71176;SDS011;58877;51.992;4.504;2024-02-21T11:14:31;7.05;;;7.04;;
71176;SDS011;58877;51.992;4.504;2024-02-21T11:17:14;7.70;;;7.69;;
71176;SDS011;58877;51.992;4.504;2024-02-21T11:19:51;8.31;;;8.31;;
71176;SDS011;58877;51.992;4.504;2024-02-21T11:22:18;7.50;;;7.50;;
71176;SDS011;58877;51.992;4.504;2024-02-21T11:24:49;8.19;;;8.19;;
71176;SDS011;58877;51.992;4.504;2024-02-21T11:27:16;8.02;;;8.02;;
71176;SDS011;58877;51.992;4.504;2024-02-21T11:29:49;8.09;;;8.09;;
71176;SDS011;58877;51.992;4.504;2024-02-21T11:32:21;8.20;;;8.20;;
71176;SDS011;58877;51.992;4.504;2024-02-21T11:35:03;7.69;;;7.69;;
71176;SDS011;58877;51.992;4.504;2024-02-21T11:37:30;8.16;;;8.15;;
71176;SDS011;58877;51.992;4.504;2024-02-21T11:40:04;7.93;;;7.93;;
71176;SDS011;58877;51.992;4.504;2024-02-21T11:42:35;7.77;;;7.77;;
71176;SDS011;58877;51.992;4.504;2024-02-21T11:45:04;7.61;;;7.61;;
71176;SDS011;58877;51.992;4.504;2024-02-21T11:47:39;7.95;;;7.95;;
71176;SDS011;58877;51.992;4.504;2024-02-21T11:50:26;7.39;;;7.39;;
71176;SDS011;58877;51.992;4.504;2024-02-21T11:53:39;7.19;;;7.19;;
71176;SDS011;58877;51.992;4.504;2024-02-21T11:56:25;6.52;;;6.52;;
71176;SDS011;58877;51.992;4.504;2024-02-21T11:59:05;7.19;;;7.19;;
71176;SDS011;58877;51.992;4.504;2024-02-21T12:01:35;7.34;;;7.34;;
71176;SDS011;58877;51.992;4.504;2024-02-21T12:04:06;7.20;;;7.20;;
71176;SDS011;58877;51.992;4.504;2024-02-21T12:06:57;7.26;;;7.26;;
71176;SDS011;58877;51.992;4.504;2024-02-21T12:09:50;7.55;;;7.55;;
71176;SDS011;58877;51.992;4.504;2024-02-21T12:12:22;7.79;;;7.78;;
71176;SDS011;58877;51.992;4.504;2024-02-21T12:14:56;7.49;;;7.49;;
71176;SDS011;58877;51.992;4.504;2024-02-21T12:17:34;6.97;;;6.97;;
71176;SDS011;58877;51.992;4.504;2024-02-21T12:20:08;7.30;;;7.30;;
71176;SDS011;58877;51.992;4.504;2024-02-21T12:22:49;7.27;;;7.27;;
71176;SDS011;58877;51.992;4.504;2024-02-21T12:25:25;7.50;;;7.50;;
71176;SDS011;58877;51.992;4.504;2024-02-21T12:27:59;7.32;;;7.32;;
71176;SDS011;58877;51.992;4.504;2024-02-21T12:30:36;7.25;;;7.25;;
71176;SDS011;58877;51.992;4.504;2024-02-21T12:33:18;7.33;;;7.33;;
71176;SDS011;58877;51.992;4.504;2024-02-21T12:35:48;6.82;;;6.82;;
71176;SDS011;58877;51.992;4.504;2024-02-21T12:38:26;7.28;;;7.28;;
71176;SDS011;58877;51.992;4.504;2024-02-21T12:41:00;7.75;;;7.73;;
71176;SDS011;58877;51.992;4.504;2024-02-21T12:43:27;7.04;;;7.01;;
71176;SDS011;58877;51.992;4.504;2024-02-21T12:46:03;7.13;;;7.13;;
71176;SDS011;58877;51.992;4.504;2024-02-21T12:48:52;7.01;;;7.01;;
71176;SDS011;58877;51.992;4.504;2024-02-21T12:51:22;7.12;;;7.12;;
71176;SDS011;58877;51.992;4.504;2024-02-21T12:53:54;6.83;;;6.81;;
71176;SDS011;58877;51.992;4.504;2024-02-21T12:59:15;6.86;;;6.84;;
71176;SDS011;58877;51.992;4.504;2024-02-21T13:02:00;6.95;;;6.95;;
71176;SDS011;58877;51.992;4.504;2024-02-21T13:04:35;6.79;;;6.79;;
71176;SDS011;58877;51.992;4.504;2024-02-21T13:07:09;6.56;;;6.56;;
71176;SDS011;58877;51.992;4.504;2024-02-21T13:09:42;7.03;;;7.03;;
71176;SDS011;58877;51.992;4.504;2024-02-21T13:12:41;6.59;;;6.59;;
71176;SDS011;58877;51.992;4.504;2024-02-21T13:15:14;8.02;;;8.02;;
71176;SDS011;58877;51.992;4.504;2024-02-21T13:17:46;8.38;;;8.38;;
71176;SDS011;58877;51.992;4.504;2024-02-21T13:20:23;7.90;;;7.88;;
71176;SDS011;58877;51.992;4.504;2024-02-21T13:23:04;7.30;;;7.30;;
71176;SDS011;58877;51.992;4.504;2024-02-21T13:28:15;7.38;;;7.38;;
71176;SDS011;58877;51.992;4.504;2024-02-21T13:30:47;7.40;;;7.40;;
71176;SDS011;58877;51.992;4.504;2024-02-21T13:33:17;6.94;;;6.94;;
71176;SDS011;58877;51.992;4.504;2024-02-21T13:35:43;6.70;;;6.70;;
71176;SDS011;58877;51.992;4.504;2024-02-21T13:38:14;6.59;;;6.59;;
71176;SDS011;58877;51.992;4.504;2024-02-21T13:40:54;6.72;;;6.72;;
71176;SDS011;58877;51.992;4.504;2024-02-21T13:43:55;6.85;;;6.82;;
71176;SDS011;58877;51.992;4.504;2024-02-21T13:46:25;6.81;;;6.81;;
71176;SDS011;58877;51.992;4.504;2024-02-21T13:48:53;5.96;;;5.95;;
71176;SDS011;58877;51.992;4.504;2024-02-21T13:51:30;5.92;;;5.92;;
71176;SDS011;58877;51.992;4.504;2024-02-21T13:54:06;5.49;;;5.49;;
71176;SDS011;58877;51.992;4.504;2024-02-21T13:56:52;5.81;;;5.81;;
71176;SDS011;58877;51.992;4.504;2024-02-21T13:59:29;5.98;;;5.94;;
71176;SDS011;58877;51.992;4.504;2024-02-21T14:04:57;5.94;;;5.94;;
71176;SDS011;58877;51.992;4.504;2024-02-21T14:07:38;6.14;;;6.14;;
71176;SDS011;58877;51.992;4.504;2024-02-21T14:10:15;5.73;;;5.70;;
71176;SDS011;58877;51.992;4.504;2024-02-21T14:13:06;5.42;;;5.38;;
71176;SDS011;58877;51.992;4.504;2024-02-21T14:15:39;5.38;;;5.36;;
71176;SDS011;58877;51.992;4.504;2024-02-21T14:20:52;5.56;;;5.54;;
71176;SDS011;58877;51.992;4.504;2024-02-21T14:23:18;5.65;;;5.65;;
71176;SDS011;58877;51.992;4.504;2024-02-21T14:29:15;5.32;;;5.32;;
71176;SDS011;58877;51.992;4.504;2024-02-21T14:32:18;5.34;;;5.34;;
71176;SDS011;58877;51.992;4.504;2024-02-21T14:42:12;5.42;;;5.42;;
71176;SDS011;58877;51.992;4.504;2024-02-21T14:56:23;4.84;;;4.84;;
71176;SDS011;58877;51.992;4.504;2024-02-21T14:59:34;4.80;;;4.80;;
71176;SDS011;58877;51.992;4.504;2024-02-21T15:02:47;5.41;;;5.41;;
71176;SDS011;58877;51.992;4.504;2024-02-21T15:09:16;5.80;;;5.79;;
71176;SDS011;58877;51.992;4.504;2024-02-21T15:11:47;5.15;;;5.15;;
71176;SDS011;58877;51.992;4.504;2024-02-21T15:14:35;5.20;;;5.20;;
71176;SDS011;58877;51.992;4.504;2024-02-21T15:17:19;5.17;;;5.17;;
71176;SDS011;58877;51.992;4.504;2024-02-21T15:20:08;4.91;;;4.91;;
71176;SDS011;58877;51.992;4.504;2024-02-21T15:22:34;5.28;;;5.28;;
71176;SDS011;58877;51.992;4.504;2024-02-21T15:25:11;5.39;;;5.39;;
71176;SDS011;58877;51.992;4.504;2024-02-21T15:27:47;5.35;;;5.35;;
71176;SDS011;58877;51.992;4.504;2024-02-21T15:30:21;5.34;;;5.34;;
71176;SDS011;58877;51.992;4.504;2024-02-21T15:32:48;5.50;;;5.50;;
71176;SDS011;58877;51.992;4.504;2024-02-21T15:35:30;5.33;;;5.33;;
71176;SDS011;58877;51.992;4.504;2024-02-21T15:38:01;5.47;;;5.47;;
71176;SDS011;58877;51.992;4.504;2024-02-21T15:40:27;5.61;;;5.61;;
71176;SDS011;58877;51.992;4.504;2024-02-21T15:42:52;5.32;;;5.32;;
71176;SDS011;58877;51.992;4.504;2024-02-21T15:45:21;6.06;;;6.06;;
71176;SDS011;58877;51.992;4.504;2024-02-21T15:47:47;6.24;;;6.24;;
71176;SDS011;58877;51.992;4.504;2024-02-21T15:50:12;5.84;;;5.84;;
71176;SDS011;58877;51.992;4.504;2024-02-21T15:52:38;5.86;;;5.86;;
71176;SDS011;58877;51.992;4.504;2024-02-21T15:55:09;5.97;;;5.97;;